Mason Valley Wildlife Refuge, Nevada Weather observations

Data are for 10 minute period ending at time listed.
 Day   Time   Solar   Ave.   Ave.  Ave.  Vector  Max.   Baro.   Total    
  of    of     Rad.   Air    Rel.  Wind   Wind   Wind  Press.  Precip.   
Year   Day            Temp.  Hum.  Speed  Dir.   Gust                    
2014   (PST)  Kw/m2    F      %     mph   deg.    mph    mb.     in.     
-------------------------------------------------------------------------
 238    4:50   0.00   43.9    75    2.1   156     4.2   869.7    0.00 
 238    5:00   0.00   43.3    78    1.9   157     2.7   869.8    0.00 
 238    5:10   0.00   43.3    76    1.4   183     2.4   869.8    0.00 
 238    5:20   0.00   42.9    78    0.0   190     1.0   869.9    0.00 
 238    5:30   0.01   42.5    79    0.1   164     0.7   870.0    0.00 
 238    5:40   0.02   42.7    80    1.4    54     1.9   870.2    0.00 
 238    5:50   0.04   43.7    77    1.3    78     2.3   870.2    0.00 
 238    6:00   0.06   44.0    75    0.5   143     2.0   870.3    0.00 
 238    6:10   0.08   45.0    78    1.7   171     2.3   870.5    0.00 
 238    6:20   0.10   47.0    76    1.0   195     2.0   870.5    0.00 
 238    6:30   0.13   49.4    76    1.8   203     2.5   870.7    0.00 
 238    6:40   0.16   52.4    72    0.4   209     1.1   870.8    0.00 
 238    6:50   0.19   55.7    64    1.2   238     2.0   871.0    0.00 
 238    7:00   0.22   58.0    61    1.7   198     3.1   871.0    0.00 
 238    7:10   0.26   59.2    57    1.5   239     2.6   871.1    0.00 
 238    7:20   0.29   61.9    49    1.3   292     3.3   871.3    0.00 
 238    7:30   0.33   62.3    47    2.2   264     3.4   871.3    0.00 
 238    7:40   0.36   63.0    46    1.1   249     3.2   871.4    0.00 
 238    7:50   0.40   63.8    46    2.2   209     3.7   871.4    0.00 
 238    8:00   0.43   64.4    44    1.8   259     3.9   871.3    0.00 
 238    8:10   0.46   65.8    41    2.0   266     5.1   871.3    0.00 
 238    8:20   0.49   66.8    39    2.0   282     5.3   871.3    0.00 
 238    8:30   0.53   67.6    36    2.1   298     5.0   871.3    0.00 
 238    8:40   0.56   68.4    36    1.3   325     4.3   871.4    0.00 
 238    8:50   0.59   69.4    35    1.7   293     3.9   871.3    0.00 
 238    9:00   0.62   69.9    34    3.7   186     7.3   871.3    0.00 
 238    9:10   0.65   69.9    35    3.8   187     6.9   871.3    0.00 
 238    9:20   0.68   70.2    33    3.5   214     7.5   871.3    0.00 
 238    9:30   0.70   71.4    31    3.2   287     7.2   871.2    0.00 
 238    9:40   0.73   71.8    30    3.3    92     6.9   871.2    0.00 
 238    9:50   0.75   72.6    30    3.5   115     6.9   871.0    0.00 
 238   10:00   0.77   73.2    29    2.2   119     7.3   871.0    0.00 
 238   10:10   0.80   73.6    28    3.4   299     7.8   870.9    0.00 
 238   10:20   0.82   73.6    28    4.0   311     8.7   870.9    0.00 
 238   10:30   0.84   74.0    28    3.3   341     8.8   870.8    0.00 
 238   10:40   0.86   75.4    27    2.9    18     5.3   870.7    0.00 
 238   10:50   0.87   75.0    26    4.3    62     9.4   870.7    0.00 
 238   11:00   0.88   74.8    26    3.8    34    10.8   870.6    0.00 
 238   11:10   0.90   75.6    26    5.8    31    12.3   870.6    0.00 
 238   11:20   0.90   76.2    25    3.6   163    11.0   870.5    0.00 
 238   11:30   0.91   77.0    24    2.9    29     8.5   870.4    0.00 
 238   11:40   0.92   76.6    24    6.0    33    12.0   870.3    0.00 
 238   11:50   0.93   76.6    24    6.0    37    12.7   870.2    0.00 
 238   12:00   0.93   76.9    23    7.6    16    13.4   870.3    0.00 
 238   12:10   0.94   77.2    22    6.8   317    13.7   870.3    0.00 
 238   12:20   0.94   77.8    22    4.2   310    11.2   870.2    0.00 
 238   12:30   0.94   77.5    22    4.4    96    12.8   870.2    0.00 
 238   12:40   0.94   78.4    21    4.2    40     8.8   870.2    0.00 
 238   12:50   0.93   77.7    21    4.9     6    11.9   870.1    0.00 
 238   13:00   0.92   79.5    20    2.9   282     8.6   870.0    0.00 
 238   13:10   0.92   78.5    20    6.9    16    12.9   870.0    0.00 
 238   13:20   0.90   78.7    19    7.3    20    14.9   869.9    0.00 
 238   13:30   0.90   79.2    18    4.6   328     8.5   869.9    0.00 
 238   13:40   0.88   79.2    18    4.5   296    12.7   869.7    0.00 
 238   13:50   0.86   79.2    18    4.7     6    13.9   869.6    0.00 
 238   14:00   0.85   79.0    17    5.5    34    15.6   869.5    0.00 
 238   14:10   0.83   79.6    18    5.2   322    12.4   869.4    0.00 
 238   14:20   0.81   80.3    18    8.0    30    13.1   869.3    0.00 
 238   14:30   0.79   80.3    17    6.2    23    11.2   869.2    0.00 
 238   14:40   0.77   80.0    17    3.6     3     9.3   869.2    0.00 
 238   14:50   0.74   80.2    17    6.7     8    15.6   869.2    0.00 
 238   15:00   0.71   80.6    16    5.9   336    11.8   869.1    0.00 
 238   15:10   0.69   80.6    16    5.6   343    14.5   868.9    0.00 
 238   15:20   0.65   80.3    16    7.7   359    14.5   869.0    0.00 
 238   15:30   0.63   81.2    16    3.6   357    10.1   868.9    0.00 
 238   15:40   0.60   81.0    16    5.4   344    11.1   868.9    0.00 
 238   15:50   0.56   80.7    17    9.6    15    15.1   868.8    0.00 
 238   16:00   0.53   80.8    16    5.3    32    11.4   868.7    0.00 
 238   16:10   0.49   80.5    17    8.4   355    13.7   868.7    0.00 
 238   16:20   0.46   80.4    16    3.5     3     8.8   868.7    0.00 
 238   16:30   0.42   80.2    17    6.8    31    11.2   868.7    0.00 
 238   16:40   0.39   80.2    17    5.3    21    10.6   868.7    0.00 
 238   16:50   0.35   80.3    17    4.4    66     9.3   868.6    0.00 
 238   17:00   0.32   79.7    17    7.7    15    12.3   868.6    0.00 
 238   17:10   0.28   79.6    18    6.1    14    11.9   868.6    0.00 
 238   17:20   0.24   79.1    17   10.3    28    15.1   868.5    0.00 
 238   17:30   0.21   78.8    18    8.5    44    13.2   868.4    0.00 
 238   17:40   0.17   78.2    19    5.6    16     8.5   868.5    0.00 
 238   17:50   0.14   77.6    20    6.9    17    11.5   868.5    0.00 
 238   18:00   0.11   77.1    19    7.7    28    11.0   868.5    0.00 
 238   18:10   0.07   76.3    20    7.6    22    12.0   868.6    0.00 
 238   18:20   0.02   74.7    21    5.8    22     8.8   868.6    0.00 
 238   18:30   0.01   73.4    22    4.8    20     7.0   868.6    0.00 
 238   18:40   0.01   72.0    24    4.4    19     6.2   868.8    0.00 
 238   18:50   0.00   70.6    26    3.5     4     4.9   868.9    0.00 
 238   19:00   0.00   69.8    26    2.5     3     3.3   869.2    0.00 
 238   19:10   0.00   68.6    28    3.1    18     3.9   869.3    0.00 
 238   19:20   0.00   67.1    30    2.4    19     3.9   869.4    0.00 
 238   19:30   0.00   67.5    30    2.5     7     3.1   869.6    0.00 
 238   19:40   0.00   68.1    29    2.3   354     2.9   869.8    0.00 
 238   19:50   0.00   67.1    30    0.8     1     1.8   870.0    0.00 
 238   20:00   0.00   65.2    34    1.0   203     2.6   870.1    0.00 
 238   20:10   0.00   63.8    37    1.9   200     2.9   870.2    0.00 
 238   20:20   0.00   61.2    43    3.2   164     5.6   870.4    0.00 
 238   20:30   0.00   58.7    42    2.4   189     4.1   870.4    0.00 
 238   20:40   0.00   61.8    36    1.7   213     2.6   870.5    0.00 
 238   20:50   0.00   62.5    38    2.3   259     4.5   870.6    0.00 
 238   21:00   0.00   57.3    50    2.5   237     3.8   870.7    0.00 
 238   21:10   0.00   55.3    58    2.4   194     4.1   870.8    0.00 
 238   21:20   0.00   55.9    58    2.0   218     3.1   870.9    0.00 
 238   21:30   0.00   55.9    56    1.6   199     2.2   870.9    0.00 
 238   21:40   0.00   58.0    49    1.9   236     2.7   871.0    0.00 
 238   21:50   0.00   58.5    48    1.5   240     2.5   871.0    0.00 
 238   22:00   0.00   55.7    57    1.1   192     1.8   871.0    0.00 
 238   22:10   0.00   54.8    62    1.6   218     2.0   871.0    0.00 
 238   22:20   0.00   55.7    55    1.5   221     2.2   871.0    0.00 
 238   22:30   0.00   55.8    56    1.1   196     2.0   871.0    0.00 
 238   22:40   0.00   54.8    58    1.5   222     2.4   871.0    0.00 
 238   22:50   0.00   55.5    54    2.4   243     4.2   871.0    0.00 
 238   23:00   0.00   53.5    56    0.8    68     3.3   871.0    0.00 
 238   23:10   0.00   50.8    53    2.6    41     4.3   871.0    0.00 
 238   23:20   0.00   50.1    53    2.5    95     4.5   871.1    0.00 
 238   23:30   0.00   48.6    59    2.0   143     3.1   871.2    0.00 
 238   23:40   0.00   48.8    62    0.9   164     1.8   871.2    0.00 
 238   23:50   0.00   49.6    59    1.3   163     2.6   871.3    0.00 
 239    0:00   0.00   50.2    58    2.2   165     4.0   871.4    0.00 
 239    0:10   0.00   51.3    58    2.5   179     4.0   871.4    0.00 
 239    0:20   0.00   51.1    62    3.3   174     4.7   871.4    0.00 
 239    0:30   0.00   50.4    60    1.3   152     3.0   871.4    0.00 
 239    0:40   0.00   51.2    57    1.1   163     2.3   871.4    0.00 
 239    0:50   0.00   50.3    56    0.2   138     1.5   871.5    0.00 
 239    1:00   0.00   49.8    56    0.4   152     2.3   871.5    0.00 
 239    1:10   0.00   50.2    57    2.1   197     3.8   871.4    0.00 
 239    1:20   0.00   50.7    59    2.9   246     3.7   871.5    0.00 
 239    1:30   0.00   49.1    64    1.1   301     3.0   871.5    0.00 
 239    1:40   0.00   48.4    66    0.3    96     1.7   871.5    0.00 
 239    1:50   0.00   49.9    62    0.3   244     1.5   871.6    0.00 
 239    2:00   0.00   48.9    63    0.7   107     2.4   871.7    0.00 
 239    2:10   0.00   47.5    60    2.1   103     3.1   871.7    0.00 
 239    2:20   0.00   46.8    60    0.9   120     2.2   871.7    0.00 
 239    2:30   0.00   47.2    60    1.1   211     2.6   871.7    0.00 
 239    2:40   0.00   48.1    60    0.7   218     1.9   871.7    0.00 
 239    2:50   0.00   46.5    65    1.4   218     2.2   871.7    0.00 
 239    3:00   0.00   48.5    64    1.9   310     3.5   871.7    0.00 
 239    3:10   0.00   49.5    65    1.2    32     2.9   871.8    0.00 
 239    3:20   0.00   49.1    65    2.9   108     5.3   871.8    0.00 
 239    3:30   0.00   49.8    64    1.4   185     3.4   871.8    0.00 
 239    3:40   0.00   50.6    62    1.5   193     2.4   871.8    0.00 
 239    3:50   0.00   48.5    68    1.3   242     2.8   871.9    0.00 
 239    4:00   0.00   48.5    68    1.1   252     2.5   872.0    0.00 
 239    4:10   0.00   47.6    70    1.4   245     2.8   872.1    0.00 
 239    4:20   0.00   48.2    67    0.9   247     2.4   872.1    0.00 
 239    4:30   0.00   46.8    71    0.1   272     0.8   872.2    0.00 
 239    4:40   0.00   46.4    71    0.5   125     1.6   872.3    0.00 

Return to Mason Valley Wildlife Refuge graphs page.


Western Regional Climate Center,wrcc@dri.edu